Time;durP1;ratioP1;P1;durP2;ratioP2;P2;SDS_P1;SDS_P2;PMS_P1;PMS_P2;Temp;Humidity;BMP_temperature;BMP_pressure;BME280_temperature;BME280_humidity;BME280_pressure;Samples;Min_cycle;Max_cycle;Signal;HPM_P1;HPM_P2
2022/06/27 00:00:59;;;;;;;8.15;3.40;;;;;;;18.83;59.45;101041.44;5053805;28;20049;-58
2022/06/27 00:03:26;;;;;;;9.20;3.72;;;;;;;18.89;60.62;101048.69;5055264;28;20044;-58
2022/06/27 00:05:53;;;;;;;9.73;3.63;;;;;;;18.84;59.78;101048.47;5055688;28;20048;-59
2022/06/27 00:08:20;;;;;;;7.88;3.60;;;;;;;18.77;59.66;101044.91;5056559;28;20049;-59
2022/06/27 00:10:47;;;;;;;8.80;3.78;;;;;;;18.71;59.49;101035.78;5055842;28;20049;-59
2022/06/27 00:13:13;;;;;;;7.55;3.53;;;;;;;18.82;59.94;101030.91;5055840;28;20049;-60
2022/06/27 00:15:40;;;;;;;9.13;3.97;;;;;;;18.87;61.00;101049.94;5055530;28;20037;-58
2022/06/27 00:18:07;;;;;;;8.50;3.70;;;;;;;18.92;61.31;101072.50;5055507;28;20075;-57
2022/06/27 00:20:34;;;;;;;11.45;3.58;;;;;;;18.89;61.62;101074.75;5055660;28;20123;-58
2022/06/27 00:23:01;;;;;;;10.27;3.80;;;;;;;18.91;61.57;101065.44;5069978;28;20118;-57
2022/06/27 00:25:27;;;;;;;9.93;3.60;;;;;;;18.94;60.40;101061.53;5059103;28;20411;-58
2022/06/27 00:27:54;;;;;;;10.00;4.00;;;;;;;18.81;61.38;101062.31;5055386;28;20047;-58
2022/06/27 00:30:21;;;;;;;9.75;3.70;;;;;;;18.76;61.77;101059.38;5055229;28;20048;-58
2022/06/27 00:32:48;;;;;;;11.13;4.00;;;;;;;18.82;62.47;101055.09;5055315;28;20052;-58
2022/06/27 00:35:15;;;;;;;8.57;3.80;;;;;;;18.70;62.13;101046.72;5054678;28;20049;-58
2022/06/27 00:37:43;;;;;;;8.70;4.10;;;;;;;18.65;61.72;101046.53;5055244;28;20380;-59
2022/06/27 00:40:10;;;;;;;10.38;3.78;;;;;;;18.68;62.57;101052.31;5054950;28;20077;-57
2022/06/27 00:42:37;;;;;;;9.48;4.28;;;;;;;18.73;62.34;101049.00;5055441;28;20453;-58
2022/06/27 00:45:05;;;;;;;8.45;3.80;;;;;;;18.76;63.16;101054.00;5055240;28;20501;-58
2022/06/27 00:47:31;;;;;;;11.50;4.10;;;;;;;18.77;62.76;101061.88;5055130;28;20076;-58
2022/06/27 00:49:58;;;;;;;8.55;4.22;;;;;;;18.76;62.95;101056.69;5054848;28;20098;-58
2022/06/27 00:52:26;;;;;;;10.88;4.68;;;;;;;18.77;63.04;101067.25;5054911;28;20510;-58
2022/06/27 00:54:53;;;;;;;9.20;3.97;;;;;;;18.80;62.30;101063.31;5055278;28;20088;-58
2022/06/27 00:57:19;;;;;;;7.70;3.72;;;;;;;18.82;61.87;101072.03;5071044;28;20052;-58
2022/06/27 00:59:46;;;;;;;9.30;3.58;;;;;;;18.80;61.45;101069.50;5073873;28;20530;-58
2022/06/27 01:02:13;;;;;;;10.77;4.00;;;;;;;18.62;60.94;101063.84;5073561;28;20589;-58
2022/06/27 01:04:41;;;;;;;11.05;3.97;;;;;;;18.58;62.04;101059.91;5074945;28;20455;-57
2022/06/27 01:07:09;;;;;;;10.30;4.00;;;;;;;18.51;61.62;101064.41;5074670;28;20048;-58
2022/06/27 01:09:40;;;;;;;9.95;4.22;;;;;;;18.42;62.00;101059.19;5075235;28;20482;-58
2022/06/27 01:12:07;;;;;;;9.15;4.10;;;;;;;18.48;61.94;101057.59;5073823;28;20047;-58
2022/06/27 01:14:33;;;;;;;12.68;4.30;;;;;;;18.50;61.60;101060.91;5073698;28;20056;-58
2022/06/27 01:17:00;;;;;;;10.77;4.35;;;;;;;18.44;62.12;101052.81;5074627;28;20052;-58
2022/06/27 01:19:27;;;;;;;11.60;3.95;;;;;;;18.47;62.22;101049.72;5074497;28;20040;-58
2022/06/27 01:21:57;;;;;;;13.32;4.43;;;;;;;18.53;63.08;101055.13;5074229;28;20040;-58
2022/06/27 01:24:26;;;;;;;10.40;4.32;;;;;;;18.52;63.35;101058.84;5074315;28;20036;-58
2022/06/27 01:26:54;;;;;;;9.50;4.15;;;;;;;18.54;63.63;101056.78;5074544;28;20053;-58
2022/06/27 01:29:21;;;;;;;10.63;4.22;;;;;;;18.46;63.35;101058.81;5064810;28;20140;-58
2022/06/27 01:31:48;;;;;;;9.73;4.10;;;;;;;18.57;63.89;101052.88;5054706;28;20094;-57
2022/06/27 01:34:17;;;;;;;12.25;4.70;;;;;;;18.51;63.78;101049.13;5053615;28;20045;-58
2022/06/27 01:36:46;;;;;;;13.05;4.63;;;;;;;18.53;63.34;101047.06;5054014;28;20049;-57
2022/06/27 01:39:18;;;;;;;11.43;4.57;;;;;;;18.51;63.41;101046.44;5053927;28;20041;-58
2022/06/27 01:41:50;;;;;;;13.37;4.43;;;;;;;18.45;64.52;101049.09;5054351;28;20059;-58
2022/06/27 01:44:18;;;;;;;9.63;4.13;;;;;;;18.42;64.94;101043.06;5054148;28;20049;-58
2022/06/27 01:46:49;;;;;;;10.38;4.22;;;;;;;18.44;65.86;101042.06;5067533;28;20482;-58
2022/06/27 01:49:17;;;;;;;13.00;4.40;;;;;;;18.37;66.28;101033.97;5073128;28;20074;-57
2022/06/27 01:51:46;;;;;;;11.07;4.72;;;;;;;18.34;66.68;101029.00;5073681;28;20052;-57
2022/06/27 01:54:15;;;;;;;13.18;4.55;;;;;;;18.38;67.25;101014.16;5073614;28;20052;-58
2022/06/27 01:56:44;;;;;;;13.57;5.28;;;;;;;18.46;67.81;101013.97;5073780;28;20080;-58
2022/06/27 01:59:14;;;;;;;11.25;4.90;;;;;;;18.47;68.43;101020.19;5073685;28;20049;-58
2022/06/27 02:01:42;;;;;;;13.27;5.78;;;;;;;18.46;69.55;101015.81;5072232;28;20048;-58
2022/06/27 02:04:11;;;;;;;19.15;5.88;;;;;;;18.47;70.49;101006.75;5072738;28;20060;-58
2022/06/27 02:06:41;;;;;;;18.10;6.18;;;;;;;18.40;70.94;100999.47;5072270;28;20082;-57
2022/06/27 02:09:11;;;;;;;15.95;6.05;;;;;;;18.34;72.28;100999.47;5073326;28;20040;-58
2022/06/27 02:11:40;;;;;;;13.40;6.18;;;;;;;18.37;72.58;100999.91;5073317;28;20037;-57
2022/06/27 02:14:12;;;;;;;16.98;6.20;;;;;;;18.36;73.54;100998.22;5073317;28;20044;-57
2022/06/27 02:16:41;;;;;;;16.05;7.05;;;;;;;18.36;73.90;101003.59;5073348;28;20040;-58
2022/06/27 02:19:13;;;;;;;19.52;7.47;;;;;;;18.30;75.45;100992.81;5073454;28;20060;-58
2022/06/27 02:21:41;;;;;;;15.32;7.78;;;;;;;18.26;75.98;100984.31;5073534;28;20047;-58
2022/06/27 02:24:09;;;;;;;16.15;7.78;;;;;;;18.23;76.76;100990.13;5057405;28;20152;-59
2022/06/27 02:26:37;;;;;;;19.88;7.90;;;;;;;18.17;77.04;100986.38;5053206;28;20129;-59
2022/06/27 02:29:05;;;;;;;16.35;8.27;;;;;;;18.13;77.46;100982.41;5053258;28;20482;-58
2022/06/27 02:31:32;;;;;;;21.42;8.65;;;;;;;18.08;77.83;100987.56;5052460;28;20508;-58
2022/06/27 02:33:59;;;;;;;17.83;8.43;;;;;;;18.03;78.64;100988.13;5053007;28;20053;-58
2022/06/27 02:36:31;;;;;;;19.55;8.98;;;;;;;18.09;78.64;100988.38;5070117;28;20040;-58
2022/06/27 02:39:00;;;;;;;22.70;10.50;;;;;;;18.15;78.39;100976.84;5071843;28;20071;-59
2022/06/27 02:41:32;;;;;;;25.60;10.98;;;;;;;18.08;79.11;100971.44;5056450;28;20041;-58
2022/06/27 02:44:04;;;;;;;30.10;12.63;;;;;;;18.08;79.19;100973.28;5052759;28;20068;-59
2022/06/27 02:46:32;;;;;;;30.42;12.90;;;;;;;18.00;79.54;100977.78;5084890;28;20045;-59
2022/06/27 02:49:00;;;;;;;33.00;14.18;;;;;;;18.06;79.21;100964.59;5052667;28;20051;-58
2022/06/27 02:51:39;;;;;;;39.65;14.30;;;;;;;17.99;79.89;100949.31;5052757;28;20102;-59
2022/06/27 02:54:19;;;;;;;29.05;12.45;;;;;;;18.02;80.09;100946.22;5052858;28;20064;-59
2022/06/27 02:57:38;;;;;;;45.38;14.98;;;;;;;17.96;80.07;100941.63;5053121;28;20049;-58
2022/06/27 03:00:08;;;;;;;37.53;15.25;;;;;;;17.93;80.53;100939.34;5052166;28;20453;-59
2022/06/27 03:02:37;;;;;;;49.33;16.65;;;;;;;17.93;80.53;100943.88;5052400;28;20041;-58
2022/06/27 03:05:17;;;;;;;43.90;15.32;;;;;;;18.06;80.77;100951.19;5051980;28;20048;-59
2022/06/27 03:07:46;;;;;;;43.53;16.52;;;;;;;18.01;80.28;100949.94;5052187;28;20095;-59
2022/06/27 03:10:14;;;;;;;43.15;15.77;;;;;;;17.98;80.61;100957.56;5052570;28;20055;-59
2022/06/27 03:12:44;;;;;;;39.35;15.55;;;;;;;18.04;81.03;100954.06;5052477;28;20478;-58
2022/06/27 03:15:11;;;;;;;47.90;17.13;;;;;;;18.03;80.46;100945.19;5053227;28;20098;-58
2022/06/27 03:17:38;;;;;;;78.20;21.83;;;;;;;17.99;80.26;100935.88;5052731;28;20131;-57
2022/06/27 03:20:25;;;;;;;106.25;24.65;;;;;;;18.02;80.18;100930.09;5052575;28;20135;-57
2022/06/27 03:23:02;;;;;;;97.47;24.23;;;;;;;18.08;80.31;100933.88;5068177;28;20401;-58
2022/06/27 03:25:35;;;;;;;90.50;22.83;;;;;;;18.10;80.12;100945.25;5072313;28;20421;-57
2022/06/27 03:28:02;;;;;;;96.25;22.92;;;;;;;18.17;79.89;100943.41;5072367;28;20045;-58
2022/06/27 03:30:29;;;;;;;80.80;21.23;;;;;;;18.15;80.10;100953.50;5060963;28;20124;-57
2022/06/27 03:32:56;;;;;;;87.78;20.15;;;;;;;18.12;80.14;100959.28;5052338;28;20079;-58
2022/06/27 03:35:25;;;;;;;69.90;17.35;;;;;;;18.25;80.05;100955.84;5054536;28;20088;-58
2022/06/27 03:37:54;;;;;;;63.53;18.13;;;;;;;18.14;79.11;100957.22;5056227;28;20089;-57
2022/06/27 03:40:22;;;;;;;58.67;17.00;;;;;;;18.12;79.40;100961.97;5056382;28;20110;-57
2022/06/27 03:42:54;;;;;;;54.88;15.85;;;;;;;18.12;78.88;100955.75;5056055;28;20041;-58
2022/06/27 03:45:21;;;;;;;60.00;15.40;;;;;;;18.18;78.80;100965.72;5056217;28;20081;-58
2022/06/27 03:47:50;;;;;;;60.25;15.18;;;;;;;18.15;78.64;100974.16;5056519;28;20079;-57
2022/06/27 03:50:35;;;;;;;53.28;14.55;;;;;;;18.15;78.95;100974.97;5056105;28;20138;-58
2022/06/27 03:53:03;;;;;;;59.60;15.27;;;;;;;18.26;79.13;100984.31;5055722;28;20402;-58
2022/06/27 03:55:34;;;;;;;52.80;14.70;;;;;;;18.31;78.86;100986.44;5056353;28;20052;-58
2022/06/27 03:58:02;;;;;;;46.95;12.77;;;;;;;18.31;79.07;100995.31;5055981;28;20048;-58
2022/06/27 04:00:33;;;;;;;45.30;11.52;;;;;;;18.32;78.41;100996.97;5055938;28;20057;-58
2022/06/27 04:03:03;;;;;;;31.90;11.43;;;;;;;18.38;78.11;100995.34;5055989;28;20049;-57
2022/06/27 04:05:49;;;;;;;30.27;9.93;;;;;;;18.33;78.47;100990.56;5056092;28;20150;-57
2022/06/27 04:08:17;;;;;;;26.17;9.48;;;;;;;18.27;76.84;100979.81;5055523;28;20438;-57
2022/06/27 04:10:44;;;;;;;21.63;8.88;;;;;;;18.30;77.02;100984.75;5055899;28;20102;-60
2022/06/27 04:13:14;;;;;;;21.40;8.60;;;;;;;18.16;75.64;100989.25;5055367;28;20037;-58
2022/06/27 04:16:00;;;;;;;14.50;8.15;;;;;;;18.20;76.76;100985.13;5055401;28;20041;-58
2022/06/27 04:18:47;;;;;;;17.35;8.10;;;;;;;18.18;76.09;100977.28;5055483;28;20051;-58
2022/06/27 04:21:34;;;;;;;17.33;7.95;;;;;;;18.11;76.49;100975.59;5058097;28;20029;-57
2022/06/27 04:24:11;;;;;;;17.92;8.32;;;;;;;17.88;76.78;100984.72;5055167;28;20049;-57
2022/06/27 04:26:44;;;;;;;18.60;8.57;;;;;;;17.87;77.62;100985.75;5055085;28;20479;-57
2022/06/27 04:29:12;;;;;;;18.58;8.73;;;;;;;17.96;77.98;100979.22;5055590;28;20049;-57
2022/06/27 04:31:40;;;;;;;17.23;8.10;;;;;;;17.98;77.80;100977.16;5054444;28;20040;-58
2022/06/27 04:34:06;;;;;;;26.48;9.45;;;;;;;18.03;77.83;100973.91;5055306;28;20049;-58
2022/06/27 04:36:41;;;;;;;19.45;8.50;;;;;;;18.02;77.61;100970.38;5055432;28;20053;-58
2022/06/27 04:39:13;;;;;;;14.13;8.07;;;;;;;17.91;77.62;100960.19;5072190;28;20076;-58
2022/06/27 04:41:49;;;;;;;17.40;8.80;;;;;;;17.80;78.60;100966.06;5055431;28;20107;-59
2022/06/27 04:44:16;;;;;;;18.85;8.25;;;;;;;17.78;78.14;100974.31;5054776;28;20048;-58
2022/06/27 04:46:43;;;;;;;20.92;9.00;;;;;;;17.64;78.68;100969.88;5054021;28;20037;-58
2022/06/27 04:49:24;;;;;;;18.42;8.88;;;;;;;17.60;78.85;100973.97;5110465;27;20368;-58
2022/06/27 04:51:55;;;;;;;14.88;8.68;;;;;;;17.63;78.89;100976.28;5109119;28;20048;-57
2022/06/27 04:54:22;;;;;;;19.35;9.18;;;;;;;17.62;78.76;100972.75;5110499;28;20062;-58
2022/06/27 04:56:49;;;;;;;19.80;9.13;;;;;;;17.63;78.89;100962.88;5110294;28;20113;-57
2022/06/27 04:59:16;;;;;;;17.65;9.18;;;;;;;17.65;78.84;100955.44;5109526;28;20052;-57
2022/06/27 05:01:49;;;;;;;15.98;9.00;;;;;;;17.81;78.42;100965.88;5110955;28;20050;-57
2022/06/27 05:04:18;;;;;;;17.90;9.07;;;;;;;17.82;78.80;100980.13;5109506;28;20082;-58
2022/06/27 05:06:46;;;;;;;15.70;8.88;;;;;;;17.80;78.11;100983.00;5092029;28;20050;-57
2022/06/27 05:09:15;;;;;;;15.73;8.70;;;;;;;17.82;78.09;100961.34;5091948;28;20055;-59
2022/06/27 05:11:44;;;;;;;16.35;8.90;;;;;;;17.88;78.24;100940.97;5109652;28;20564;-59
2022/06/27 05:14:11;;;;;;;18.17;9.18;;;;;;;17.99;78.48;100943.09;5109934;28;20059;-59
2022/06/27 05:16:43;;;;;;;16.20;9.25;;;;;;;18.00;78.24;100940.22;5108783;28;20437;-58
2022/06/27 05:19:10;;;;;;;15.98;9.15;;;;;;;18.09;77.45;100932.81;5075319;28;20066;-58
2022/06/27 05:21:44;;;;;;;15.77;9.27;;;;;;;18.14;77.66;100925.00;5109725;28;20036;-58
2022/06/27 05:24:11;;;;;;;17.08;9.38;;;;;;;18.20;78.18;100923.38;5108624;28;20048;-58
2022/06/27 05:26:39;;;;;;;14.88;9.27;;;;;;;18.32;77.73;100911.03;5109956;28;20070;-58
2022/06/27 05:29:06;;;;;;;21.10;10.40;;;;;;;18.34;77.04;100903.63;5109583;28;20054;-58
2022/06/27 05:31:33;;;;;;;22.05;10.00;;;;;;;18.31;77.41;100895.94;5105442;28;20520;-58
2022/06/27 05:34:01;;;;;;;19.73;9.95;;;;;;;18.18;77.32;100891.34;5109875;28;20043;-58
2022/06/27 05:36:28;;;;;;;17.42;10.55;;;;;;;18.12;77.53;100877.91;5109660;28;20434;-59
2022/06/27 05:38:55;;;;;;;18.20;10.52;;;;;;;18.07;77.65;100880.38;5109290;28;20089;-58
2022/06/27 05:41:22;;;;;;;19.63;10.70;;;;;;;18.03;77.63;100882.63;5109372;28;20115;-59
2022/06/27 05:43:53;;;;;;;23.23;10.48;;;;;;;18.15;78.33;100894.44;5109362;28;20035;-58
2022/06/27 05:46:20;;;;;;;21.02;10.43;;;;;;;18.14;77.89;100916.13;5109169;28;20047;-58
2022/06/27 05:49:08;;;;;;;20.33;10.40;;;;;;;18.10;77.61;100949.75;5108778;28;20072;-59
2022/06/27 05:51:43;;;;;;;19.90;9.80;;;;;;;17.96;76.94;100973.84;5109341;28;20044;-58
2022/06/27 05:54:12;;;;;;;16.63;9.43;;;;;;;18.00;76.81;100990.38;5109289;28;20565;-58
2022/06/27 05:56:39;;;;;;;20.60;9.80;;;;;;;17.88;77.89;100968.63;5109344;28;20118;-58
2022/06/27 05:59:06;;;;;;;17.30;9.63;;;;;;;17.94;78.23;100962.47;5103393;28;20123;-59
2022/06/27 06:01:37;;;;;;;16.02;9.68;;;;;;;17.86;77.81;100956.44;5095527;28;20078;-57
2022/06/27 06:04:05;;;;;;;22.23;9.23;;;;;;;17.90;77.94;100936.22;5094696;28;20093;-57
2022/06/27 06:06:33;;;;;;;18.30;9.15;;;;;;;17.92;78.07;100940.38;5090089;28;20044;-57
2022/06/27 06:09:01;;;;;;;21.45;9.75;;;;;;;18.08;78.13;100954.50;5093304;28;20036;-57
2022/06/27 06:11:28;;;;;;;20.75;9.65;;;;;;;18.18;77.33;100965.72;5094436;28;20497;-58
2022/06/27 06:13:55;;;;;;;17.25;8.95;;;;;;;18.06;77.50;100972.66;5093191;28;20044;-57
2022/06/27 06:16:23;;;;;;;15.38;9.07;;;;;;;18.16;77.40;101000.00;5095042;28;20102;-58
2022/06/27 06:18:53;;;;;;;17.58;9.07;;;;;;;18.25;77.15;101011.41;5094364;28;20366;-57
2022/06/27 06:21:21;;;;;;;15.60;8.52;;;;;;;18.26;76.91;101010.34;5094404;28;20044;-58
2022/06/27 06:23:51;;;;;;;18.35;8.90;;;;;;;18.42;77.59;101020.78;5094261;28;20509;-57
2022/06/27 06:26:19;;;;;;;18.63;8.75;;;;;;;18.49;77.06;101034.25;5094495;28;20048;-58
2022/06/27 06:28:49;;;;;;;15.30;9.02;;;;;;;18.50;76.36;101042.09;5094507;28;20496;-58
2022/06/27 06:31:25;;;;;;;14.18;9.00;;;;;;;18.55;75.29;101047.69;5094984;28;20079;-58
2022/06/27 06:33:56;;;;;;;14.73;7.75;;;;;;;18.65;74.92;101049.22;5094247;28;20040;-58
2022/06/27 06:36:23;;;;;;;13.43;7.65;;;;;;;18.69;75.68;101059.34;5094422;28;20055;-58
2022/06/27 06:38:51;;;;;;;15.05;8.68;;;;;;;18.73;75.17;101060.59;5094010;28;20038;-58
2022/06/27 06:41:20;;;;;;;16.45;7.75;;;;;;;18.75;75.46;101071.13;5094649;28;20119;-58
2022/06/27 06:43:48;;;;;;;15.60;8.02;;;;;;;18.78;74.08;101081.50;5076045;28;20051;-58
2022/06/27 06:46:33;;;;;;;16.52;8.40;;;;;;;18.74;73.85;101088.31;5094429;28;20098;-58
2022/06/27 06:49:05;;;;;;;17.73;7.85;;;;;;;18.72;73.23;101088.50;5092630;28;20044;-58
2022/06/27 06:51:35;;;;;;;16.42;8.15;;;;;;;18.70;73.47;101078.97;5094364;28;20040;-58
2022/06/27 06:54:04;;;;;;;14.90;8.32;;;;;;;18.71;74.00;101065.34;5092973;28;20035;-57
2022/06/27 06:56:31;;;;;;;13.85;8.23;;;;;;;18.75;73.95;101058.53;5094344;28;20501;-58
2022/06/27 06:58:59;;;;;;;14.80;8.45;;;;;;;18.75;74.88;101050.47;5094050;28;20459;-58
2022/06/27 07:01:27;;;;;;;14.15;8.32;;;;;;;18.69;74.75;101035.16;5093214;28;20048;-58
2022/06/27 07:03:55;;;;;;;15.05;8.35;;;;;;;18.86;73.93;101034.84;5093662;28;20048;-58
2022/06/27 07:06:24;;;;;;;13.65;8.45;;;;;;;18.98;74.66;101034.03;5085794;28;20131;-57
2022/06/27 07:08:53;;;;;;;16.20;8.23;;;;;;;19.05;74.54;101038.63;5072906;28;20044;-58
2022/06/27 07:11:22;;;;;;;22.80;8.93;;;;;;;18.95;73.19;101036.31;5090618;28;20040;-58
2022/06/27 07:13:51;;;;;;;18.17;9.10;;;;;;;18.80;72.79;101036.44;5093343;28;20516;-58
2022/06/27 07:16:18;;;;;;;16.83;9.40;;;;;;;18.88;72.64;101028.25;5092194;28;20409;-58
2022/06/27 07:18:46;;;;;;;19.73;8.93;;;;;;;19.01;73.22;101031.97;5093826;28;20082;-58
2022/06/27 07:21:16;;;;;;;17.50;8.82;;;;;;;19.10;73.80;101036.97;5075725;28;20062;-58
2022/06/27 07:23:46;;;;;;;17.02;8.23;;;;;;;19.13;72.60;101030.34;5093917;28;20101;-58
2022/06/27 07:26:14;;;;;;;16.95;8.35;;;;;;;19.26;72.58;101024.19;5072907;28;20047;-58
2022/06/27 07:28:42;;;;;;;15.25;8.32;;;;;;;19.21;72.60;101026.66;5089901;28;20068;-58
2022/06/27 07:31:11;;;;;;;15.82;8.60;;;;;;;19.08;71.87;101028.31;5085799;28;20482;-58
2022/06/27 07:33:39;;;;;;;18.50;9.25;;;;;;;19.10;71.75;101033.44;5079478;28;20093;-58
2022/06/27 07:36:08;;;;;;;17.25;9.07;;;;;;;19.12;72.52;101026.84;5080255;28;20044;-58
2022/06/27 07:38:38;;;;;;;22.92;8.98;;;;;;;19.14;72.15;100999.75;5085752;28;20089;-58
2022/06/27 07:41:05;;;;;;;17.77;8.75;;;;;;;19.03;73.01;100987.75;5090651;28;20489;-59
2022/06/27 07:43:33;;;;;;;20.88;9.88;;;;;;;19.01;73.36;101015.84;5093000;28;20093;-57
2022/06/27 07:46:02;;;;;;;16.50;8.55;;;;;;;19.21;74.37;101019.44;5092214;28;20050;-59
2022/06/27 07:48:30;;;;;;;17.55;8.05;;;;;;;19.27;73.55;101021.28;5076868;28;20088;-58
2022/06/27 07:50:57;;;;;;;12.55;7.78;;;;;;;19.36;73.62;101033.50;5091370;28;20052;-58
2022/06/27 07:53:25;;;;;;;16.17;8.23;;;;;;;19.53;72.23;101033.91;5089742;28;20040;-58
2022/06/27 07:55:57;;;;;;;19.05;9.05;;;;;;;19.51;72.55;101035.19;5102219;28;20398;-58
2022/06/27 07:58:30;;;;;;;16.77;8.70;;;;;;;19.61;72.34;101040.13;5085832;28;20032;-57
2022/06/27 08:01:00;;;;;;;17.55;8.68;;;;;;;19.71;72.36;101054.03;5078535;28;20053;-58
2022/06/27 08:03:44;;;;;;;19.65;9.35;;;;;;;19.65;70.58;101063.75;5089499;28;20051;-58
2022/06/27 08:06:29;;;;;;;14.95;8.80;;;;;;;19.68;70.47;101079.50;5088596;28;20036;-59
2022/06/27 08:08:59;;;;;;;18.40;8.55;;;;;;;19.67;71.06;101074.31;5092613;28;20048;-58
2022/06/27 08:11:28;;;;;;;16.83;8.10;;;;;;;19.69;70.88;101083.81;5089998;28;20406;-58
2022/06/27 08:13:58;;;;;;;16.33;8.68;;;;;;;19.65;71.15;101096.03;5092390;28;20048;-58
2022/06/27 08:16:26;;;;;;;16.98;9.20;;;;;;;19.71;70.63;101081.75;5090188;28;20052;-59
2022/06/27 08:18:53;;;;;;;18.05;9.57;;;;;;;19.69;70.47;101083.00;5104456;28;20131;-59
2022/06/27 08:21:24;;;;;;;18.13;8.73;;;;;;;19.47;71.36;101091.25;5089850;28;20093;-59
2022/06/27 08:23:56;;;;;;;15.98;9.00;;;;;;;19.47;71.36;101098.50;5086350;28;20485;-58
2022/06/27 08:26:23;;;;;;;19.90;8.30;;;;;;;19.43;71.46;101098.09;5092227;28;20130;-59
2022/06/27 08:28:51;;;;;;;16.17;8.95;;;;;;;19.29;70.29;101102.59;5091829;28;20091;-59
2022/06/27 08:31:18;;;;;;;17.33;9.05;;;;;;;19.28;70.50;101118.94;5079672;28;20062;-58
2022/06/27 08:33:50;;;;;;;19.63;9.50;;;;;;;19.24;70.93;101140.00;5065984;28;20047;-58
2022/06/27 08:36:17;;;;;;;19.80;8.93;;;;;;;19.29;70.67;101156.38;5090448;28;20044;-58
2022/06/27 08:38:53;;;;;;;18.75;9.00;;;;;;;19.28;71.40;101160.13;5089798;28;20055;-58
2022/06/27 08:41:22;;;;;;;19.60;10.20;;;;;;;19.24;71.14;101153.47;5088322;28;20070;-58
2022/06/27 08:43:59;;;;;;;17.38;9.43;;;;;;;19.17;72.51;101153.47;5091914;28;20105;-58
2022/06/27 08:46:28;;;;;;;15.98;8.27;;;;;;;19.21;73.72;101137.75;5088577;28;20043;-58
2022/06/27 08:48:55;;;;;;;15.85;9.25;;;;;;;19.28;73.63;101133.22;5091326;28;20375;-59
2022/06/27 08:51:23;;;;;;;16.48;9.45;;;;;;;19.33;72.42;101154.94;5088018;28;20063;-58
2022/06/27 08:53:52;;;;;;;16.42;8.88;;;;;;;19.42;71.75;101162.84;5088910;28;20146;-58
2022/06/27 08:56:20;;;;;;;18.88;8.95;;;;;;;19.47;71.95;101171.16;5082766;28;20597;-59
2022/06/27 08:58:48;;;;;;;17.30;9.75;;;;;;;19.42;71.10;101166.34;5091094;28;20072;-58
2022/06/27 09:01:19;;;;;;;18.40;9.43;;;;;;;19.38;71.78;101162.41;5087467;28;20054;-58
2022/06/27 09:04:04;;;;;;;16.60;9.17;;;;;;;19.33;71.63;101170.25;5089216;28;20131;-57
2022/06/27 09:06:37;;;;;;;21.67;9.93;;;;;;;19.37;71.09;101166.13;5081728;28;20857;-58
2022/06/27 09:09:08;;;;;;;18.15;9.48;;;;;;;19.32;71.85;101174.00;5075379;28;20044;-58
2022/06/27 09:11:38;;;;;;;16.70;9.23;;;;;;;19.34;71.52;101166.56;5090298;28;20072;-58
2022/06/27 09:14:27;;;;;;;19.40;8.82;;;;;;;19.40;72.53;101163.03;5091400;28;20052;-57
2022/06/27 09:16:57;;;;;;;17.38;9.48;;;;;;;19.47;71.83;101163.06;5086733;28;20085;-64
2022/06/27 09:19:58;;;;;;;20.45;9.73;;;;;;;19.49;70.73;101161.00;5092212;28;20051;-63
2022/06/27 09:22:29;;;;;;;19.87;10.10;;;;;;;19.30;71.70;101157.19;5090452;28;20393;-64
2022/06/27 09:25:09;;;;;;;18.48;10.15;;;;;;;19.28;71.78;101152.06;5089205;28;20405;-65
2022/06/27 09:27:50;;;;;;;20.48;10.35;;;;;;;19.40;72.63;101149.59;5089172;28;20044;-64
2022/06/27 09:30:22;;;;;;;20.10;11.15;;;;;;;19.38;72.45;101148.97;5089830;28;20140;-65
2022/06/27 09:32:58;;;;;;;24.98;12.40;;;;;;;19.36;72.95;101143.78;5090790;28;20044;-64
2022/06/27 09:35:32;;;;;;;22.92;11.63;;;;;;;19.46;72.91;101139.88;5093155;28;20040;-64
2022/06/27 09:38:03;;;;;;;21.70;12.50;;;;;;;19.59;72.09;101142.59;5102232;28;20194;-63
2022/06/27 09:40:33;;;;;;;23.27;11.48;;;;;;;19.59;72.47;101145.28;5089991;28;20036;-63
2022/06/27 09:43:03;;;;;;;22.88;12.80;;;;;;;19.64;71.52;101145.50;5110863;28;20375;-63
2022/06/27 09:45:31;;;;;;;27.15;12.90;;;;;;;19.76;70.51;101143.09;5094263;28;20044;-63
2022/06/27 09:48:02;;;;;;;22.98;12.10;;;;;;;19.85;71.82;101146.41;5094352;28;20165;-63
2022/06/27 09:50:33;;;;;;;26.52;13.10;;;;;;;20.03;69.71;101148.47;5093110;28;20482;-62
2022/06/27 09:53:02;;;;;;;22.50;12.55;;;;;;;20.02;71.06;101136.88;5092301;28;20482;-62
2022/06/27 09:55:30;;;;;;;22.75;12.50;;;;;;;20.06;70.35;101140.81;5093015;28;20375;-63
2022/06/27 09:57:58;;;;;;;23.45;12.18;;;;;;;20.08;69.07;101146.00;5088941;28;20044;-62
2022/06/27 10:00:26;;;;;;;19.75;11.98;;;;;;;19.96;68.96;101145.78;5081821;28;20052;-62
2022/06/27 10:02:58;;;;;;;23.52;13.57;;;;;;;20.07;68.35;101133.56;5090586;28;20101;-63
2022/06/27 10:05:25;;;;;;;22.92;13.05;;;;;;;20.07;68.31;101122.81;5094134;28;20048;-63
2022/06/27 10:07:57;;;;;;;23.13;12.40;;;;;;;20.19;70.20;101109.53;5094485;28;20055;-63
2022/06/27 10:10:28;;;;;;;24.20;11.85;;;;;;;20.41;69.88;101115.50;5092310;28;20044;-64
2022/06/27 10:12:58;;;;;;;27.03;14.10;;;;;;;20.45;65.81;101120.28;5093370;28;20055;-62
2022/06/27 10:15:29;;;;;;;24.58;14.25;;;;;;;20.48;67.04;101130.63;5092505;28;20752;-63
2022/06/27 10:17:58;;;;;;;21.95;12.48;;;;;;;20.54;67.43;101134.34;5094193;28;20040;-63
2022/06/27 10:20:31;;;;;;;23.88;12.02;;;;;;;20.53;67.59;101138.91;5093625;28;20089;-63
2022/06/27 10:23:21;;;;;;;21.83;12.38;;;;;;;20.56;68.27;101142.25;5090601;28;20049;-64
2022/06/27 10:25:49;;;;;;;20.80;12.02;;;;;;;20.46;69.55;101137.25;5093237;28;20486;-64
2022/06/27 10:28:18;;;;;;;20.02;11.75;;;;;;;20.35;66.95;101135.22;5093351;28;20067;-64
2022/06/27 10:33:35;;;;;;;20.58;10.82;;;;;;;20.19;68.05;101158.81;5074822;27;20403;-63
2022/06/27 10:36:13;;;;;;;19.40;11.07;;;;;;;20.09;67.03;101145.78;5074452;28;20066;-63
2022/06/27 10:38:46;;;;;;;27.38;10.93;;;;;;;20.09;67.05;101148.47;5070181;28;20136;-63
2022/06/27 10:43:59;;;;;;;20.52;9.40;;;;;;;20.07;66.26;101139.78;5088328;27;20372;-64
2022/06/27 10:49:17;;;;;;;21.67;9.82;;;;;;;20.24;65.00;101160.91;5108072;27;20374;-63
2022/06/27 10:51:44;;;;;;;17.95;8.75;;;;;;;20.25;65.84;101168.78;5107268;28;20680;-63
2022/06/27 10:54:11;;;;;;;21.88;9.77;;;;;;;20.22;64.89;101176.47;5105526;28;20439;-63
2022/06/27 10:56:55;;;;;;;18.83;9.65;;;;;;;20.15;64.97;101171.06;5090518;28;20087;-67
2022/06/27 11:02:05;;;;;;;21.27;11.63;;;;;;;20.03;66.50;101178.94;5069461;27;20584;-63
2022/06/27 11:04:34;;;;;;;21.67;10.75;;;;;;;20.05;67.93;101170.66;5051295;28;20045;-64
2022/06/27 11:07:07;;;;;;;22.90;10.98;;;;;;;20.07;69.67;101173.97;5070051;28;20783;-64
2022/06/27 11:09:45;;;;;;;24.52;12.35;;;;;;;20.09;72.74;101167.34;5049700;28;20503;-62
2022/06/27 11:12:15;;;;;;;24.23;13.10;;;;;;;20.07;73.45;101173.97;5065837;28;20053;-63
2022/06/27 11:14:59;;;;;;;20.83;13.82;;;;;;;20.02;71.63;101176.44;5054469;28;20048;-64
2022/06/27 11:17:33;;;;;;;27.80;14.18;;;;;;;20.00;73.00;101178.53;5065729;28;20086;-63
2022/06/27 11:20:19;;;;;;;29.65;14.38;;;;;;;19.98;73.91;101176.03;5068434;28;20033;-63
2022/06/27 11:23:03;;;;;;;29.48;15.43;;;;;;;19.87;72.27;101185.53;5057671;28;20140;-64
2022/06/27 11:25:30;;;;;;;28.83;15.48;;;;;;;19.83;72.16;101191.53;5032062;28;20522;-64
2022/06/27 11:33:36;;;;;;;33.10;16.23;;;;;;;19.73;71.83;101173.09;5066431;28;20513;-64
2022/06/27 11:36:03;;;;;;;26.15;16.35;;;;;;;19.80;72.97;101163.16;5072499;28;20265;-64
2022/06/27 11:38:43;;;;;;;28.33;17.38;;;;;;;19.84;73.58;101167.09;5031453;28;20037;-64
2022/06/27 11:41:12;;;;;;;27.58;17.38;;;;;;;19.99;72.71;101150.75;5080608;28;20040;-64
2022/06/27 11:44:02;;;;;;;26.50;17.27;;;;;;;20.17;73.92;101152.00;5069347;28;20063;-64
2022/06/27 11:46:45;;;;;;;27.40;16.10;;;;;;;20.29;68.47;101159.25;5027843;28;20076;-64